sensor_id;sensor_type;location;lat;lon;timestamp;temperature;humidity
60848;DHT22;46681;47.696;9.140;2022-08-18T00:00:10;22.50;53.00
60848;DHT22;46681;47.696;9.140;2022-08-18T00:02:37;22.50;53.00
60848;DHT22;46681;47.696;9.140;2022-08-18T00:05:06;22.40;53.00
60848;DHT22;46681;47.696;9.140;2022-08-18T00:07:37;22.40;53.00
60848;DHT22;46681;47.696;9.140;2022-08-18T00:10:07;22.40;53.00
60848;DHT22;46681;47.696;9.140;2022-08-18T00:12:38;22.40;53.00
60848;DHT22;46681;47.696;9.140;2022-08-18T00:15:11;22.40;53.10
60848;DHT22;46681;47.696;9.140;2022-08-18T00:17:44;22.30;53.10
60848;DHT22;46681;47.696;9.140;2022-08-18T00:20:26;22.30;53.20
60848;DHT22;46681;47.696;9.140;2022-08-18T00:22:54;22.30;53.20
60848;DHT22;46681;47.696;9.140;2022-08-18T00:25:23;22.30;53.10
60848;DHT22;46681;47.696;9.140;2022-08-18T00:27:55;22.30;53.20
60848;DHT22;46681;47.696;9.140;2022-08-18T00:30:22;22.30;53.20
60848;DHT22;46681;47.696;9.140;2022-08-18T00:32:55;22.20;53.30
60848;DHT22;46681;47.696;9.140;2022-08-18T00:35:28;22.20;53.30
60848;DHT22;46681;47.696;9.140;2022-08-18T00:37:59;22.20;53.20
60848;DHT22;46681;47.696;9.140;2022-08-18T00:40:30;22.20;53.20
60848;DHT22;46681;47.696;9.140;2022-08-18T00:42:59;22.20;53.40
60848;DHT22;46681;47.696;9.140;2022-08-18T00:45:34;22.10;53.30
60848;DHT22;46681;47.696;9.140;2022-08-18T00:48:07;22.10;53.40
60848;DHT22;46681;47.696;9.140;2022-08-18T00:50:43;22.10;53.40
60848;DHT22;46681;47.696;9.140;2022-08-18T00:53:52;22.00;53.40
60848;DHT22;46681;47.696;9.140;2022-08-18T00:56:33;22.00;53.50
60848;DHT22;46681;47.696;9.140;2022-08-18T01:01:42;22.00;53.90
60848;DHT22;46681;47.696;9.140;2022-08-18T01:04:26;22.00;53.60
60848;DHT22;46681;47.696;9.140;2022-08-18T01:07:04;22.00;53.70
60848;DHT22;46681;47.696;9.140;2022-08-18T01:09:34;21.90;53.60
60848;DHT22;46681;47.696;9.140;2022-08-18T01:11:59;21.90;53.60
60848;DHT22;46681;47.696;9.140;2022-08-18T01:14:27;21.90;53.60
60848;DHT22;46681;47.696;9.140;2022-08-18T01:16:53;21.90;53.60
60848;DHT22;46681;47.696;9.140;2022-08-18T01:19:22;21.90;53.70
60848;DHT22;46681;47.696;9.140;2022-08-18T01:21:54;21.90;53.80
60848;DHT22;46681;47.696;9.140;2022-08-18T01:24:33;21.90;53.70
60848;DHT22;46681;47.696;9.140;2022-08-18T01:26:59;21.80;53.60
60848;DHT22;46681;47.696;9.140;2022-08-18T01:29:27;21.80;53.70
60848;DHT22;46681;47.696;9.140;2022-08-18T01:31:53;21.80;53.80
60848;DHT22;46681;47.696;9.140;2022-08-18T01:34:25;21.80;53.80
60848;DHT22;46681;47.696;9.140;2022-08-18T01:36:53;21.80;53.80
60848;DHT22;46681;47.696;9.140;2022-08-18T01:39:23;21.80;53.90
60848;DHT22;46681;47.696;9.140;2022-08-18T01:41:49;21.70;53.60
60848;DHT22;46681;47.696;9.140;2022-08-18T01:44:14;21.70;53.90
60848;DHT22;46681;47.696;9.140;2022-08-18T01:46:40;21.70;53.80
60848;DHT22;46681;47.696;9.140;2022-08-18T01:49:07;21.70;53.90
60848;DHT22;46681;47.696;9.140;2022-08-18T01:51:35;21.70;53.90
60848;DHT22;46681;47.696;9.140;2022-08-18T01:54:04;21.70;54.00
60848;DHT22;46681;47.696;9.140;2022-08-18T01:56:34;21.70;54.00
60848;DHT22;46681;47.696;9.140;2022-08-18T01:59:09;21.60;54.00
60848;DHT22;46681;47.696;9.140;2022-08-18T02:01:38;21.60;54.00
60848;DHT22;46681;47.696;9.140;2022-08-18T02:04:05;21.60;54.00
60848;DHT22;46681;47.696;9.140;2022-08-18T02:06:34;21.60;54.00
60848;DHT22;46681;47.696;9.140;2022-08-18T02:09:02;21.60;54.10
60848;DHT22;46681;47.696;9.140;2022-08-18T02:11:28;21.60;54.00
60848;DHT22;46681;47.696;9.140;2022-08-18T02:13:53;21.50;54.10
60848;DHT22;46681;47.696;9.140;2022-08-18T02:16:25;21.50;54.10
60848;DHT22;46681;47.696;9.140;2022-08-18T02:19:03;21.50;54.10
60848;DHT22;46681;47.696;9.140;2022-08-18T02:21:29;21.50;54.30
60848;DHT22;46681;47.696;9.140;2022-08-18T02:23:57;21.50;54.20
60848;DHT22;46681;47.696;9.140;2022-08-18T02:26:22;21.50;54.30
60848;DHT22;46681;47.696;9.140;2022-08-18T02:28:49;21.40;54.30
60848;DHT22;46681;47.696;9.140;2022-08-18T02:31:22;21.40;54.30
60848;DHT22;46681;47.696;9.140;2022-08-18T02:33:48;21.40;54.20
60848;DHT22;46681;47.696;9.140;2022-08-18T02:36:14;21.40;54.30
60848;DHT22;46681;47.696;9.140;2022-08-18T02:38:41;21.40;54.40
60848;DHT22;46681;47.696;9.140;2022-08-18T02:41:13;21.40;54.40
60848;DHT22;46681;47.696;9.140;2022-08-18T02:43:43;21.40;54.50
60848;DHT22;46681;47.696;9.140;2022-08-18T02:46:10;21.40;54.50
60848;DHT22;46681;47.696;9.140;2022-08-18T02:48:35;21.30;54.60
60848;DHT22;46681;47.696;9.140;2022-08-18T02:53:28;21.30;54.60
60848;DHT22;46681;47.696;9.140;2022-08-18T02:56:03;21.30;54.60
60848;DHT22;46681;47.696;9.140;2022-08-18T02:58:29;21.30;54.60
60848;DHT22;46681;47.696;9.140;2022-08-18T03:00:57;21.30;54.60
60848;DHT22;46681;47.696;9.140;2022-08-18T03:03:24;21.30;54.60
60848;DHT22;46681;47.696;9.140;2022-08-18T03:05:51;21.30;54.60
60848;DHT22;46681;47.696;9.140;2022-08-18T03:08:28;21.20;54.60
60848;DHT22;46681;47.696;9.140;2022-08-18T03:10:54;21.20;54.70
60848;DHT22;46681;47.696;9.140;2022-08-18T03:13:24;21.20;54.70
60848;DHT22;46681;47.696;9.140;2022-08-18T03:15:53;21.20;54.70
60848;DHT22;46681;47.696;9.140;2022-08-18T03:18:24;21.20;54.80
60848;DHT22;46681;47.696;9.140;2022-08-18T03:20:50;21.20;54.80
60848;DHT22;46681;47.696;9.140;2022-08-18T03:23:17;21.20;54.80
60848;DHT22;46681;47.696;9.140;2022-08-18T03:25:52;21.20;54.80
60848;DHT22;46681;47.696;9.140;2022-08-18T03:28:17;21.20;54.90
60848;DHT22;46681;47.696;9.140;2022-08-18T03:30:43;21.20;54.90
60848;DHT22;46681;47.696;9.140;2022-08-18T03:33:09;21.20;54.90
60848;DHT22;46681;47.696;9.140;2022-08-18T03:35:36;21.10;54.80
60848;DHT22;46681;47.696;9.140;2022-08-18T03:38:05;21.10;54.90
60848;DHT22;46681;47.696;9.140;2022-08-18T03:40:30;21.10;54.80
60848;DHT22;46681;47.696;9.140;2022-08-18T03:42:56;21.10;54.90
60848;DHT22;46681;47.696;9.140;2022-08-18T03:45:24;21.10;55.00
60848;DHT22;46681;47.696;9.140;2022-08-18T03:47:52;21.10;54.90
60848;DHT22;46681;47.696;9.140;2022-08-18T03:50:19;21.10;55.00
60848;DHT22;46681;47.696;9.140;2022-08-18T03:52:47;21.00;54.90
60848;DHT22;46681;47.696;9.140;2022-08-18T03:55:16;21.00;55.00
60848;DHT22;46681;47.696;9.140;2022-08-18T03:57:43;21.00;54.90
60848;DHT22;46681;47.696;9.140;2022-08-18T04:00:12;21.00;55.00
60848;DHT22;46681;47.696;9.140;2022-08-18T04:02:39;21.00;55.00
60848;DHT22;46681;47.696;9.140;2022-08-18T04:05:06;21.00;55.00
60848;DHT22;46681;47.696;9.140;2022-08-18T04:07:34;20.90;55.00
60848;DHT22;46681;47.696;9.140;2022-08-18T04:10:03;20.90;55.00
60848;DHT22;46681;47.696;9.140;2022-08-18T04:12:30;20.90;55.10
60848;DHT22;46681;47.696;9.140;2022-08-18T04:14:59;20.90;55.10
60848;DHT22;46681;47.696;9.140;2022-08-18T04:17:29;20.90;55.00
60848;DHT22;46681;47.696;9.140;2022-08-18T04:19:55;20.90;55.20
60848;DHT22;46681;47.696;9.140;2022-08-18T04:22:22;20.90;55.80
60848;DHT22;46681;47.696;9.140;2022-08-18T04:24:50;20.90;55.90
60848;DHT22;46681;47.696;9.140;2022-08-18T04:27:18;20.80;55.70
60848;DHT22;46681;47.696;9.140;2022-08-18T04:29:53;20.80;55.70
60848;DHT22;46681;47.696;9.140;2022-08-18T04:32:24;20.80;55.70
60848;DHT22;46681;47.696;9.140;2022-08-18T04:34:50;20.80;55.70
60848;DHT22;46681;47.696;9.140;2022-08-18T04:37:19;20.80;55.60
60848;DHT22;46681;47.696;9.140;2022-08-18T04:39:49;20.80;55.70
60848;DHT22;46681;47.696;9.140;2022-08-18T04:42:15;20.80;55.60
60848;DHT22;46681;47.696;9.140;2022-08-18T04:44:41;20.80;55.60
60848;DHT22;46681;47.696;9.140;2022-08-18T04:47:09;20.80;55.50
60848;DHT22;46681;47.696;9.140;2022-08-18T04:49:35;20.80;55.60
60848;DHT22;46681;47.696;9.140;2022-08-18T04:52:04;20.80;55.60
60848;DHT22;46681;47.696;9.140;2022-08-18T04:54:42;20.80;55.70
60848;DHT22;46681;47.696;9.140;2022-08-18T04:57:13;20.80;55.70
60848;DHT22;46681;47.696;9.140;2022-08-18T04:59:47;20.80;55.60
60848;DHT22;46681;47.696;9.140;2022-08-18T05:02:25;20.80;55.60
60848;DHT22;46681;47.696;9.140;2022-08-18T05:04:53;20.80;55.60
60848;DHT22;46681;47.696;9.140;2022-08-18T05:07:21;20.80;55.70
60848;DHT22;46681;47.696;9.140;2022-08-18T05:09:46;20.80;55.80
60848;DHT22;46681;47.696;9.140;2022-08-18T05:12:15;20.80;55.70
60848;DHT22;46681;47.696;9.140;2022-08-18T05:14:43;20.80;55.70
60848;DHT22;46681;47.696;9.140;2022-08-18T05:17:14;20.80;55.80
60848;DHT22;46681;47.696;9.140;2022-08-18T05:19:40;20.80;55.80
60848;DHT22;46681;47.696;9.140;2022-08-18T05:22:09;20.80;55.80
60848;DHT22;46681;47.696;9.140;2022-08-18T05:24:35;20.80;55.90
60848;DHT22;46681;47.696;9.140;2022-08-18T05:27:04;20.80;55.90
60848;DHT22;46681;47.696;9.140;2022-08-18T05:29:30;20.80;56.10
60848;DHT22;46681;47.696;9.140;2022-08-18T05:32:03;20.80;56.00
60848;DHT22;46681;47.696;9.140;2022-08-18T05:34:31;20.80;56.10
60848;DHT22;46681;47.696;9.140;2022-08-18T05:37:13;20.80;56.10
60848;DHT22;46681;47.696;9.140;2022-08-18T05:40:07;20.80;56.10
60848;DHT22;46681;47.696;9.140;2022-08-18T05:42:45;20.80;56.00
60848;DHT22;46681;47.696;9.140;2022-08-18T05:45:17;20.80;56.00
60848;DHT22;46681;47.696;9.140;2022-08-18T05:47:43;20.80;55.80
60848;DHT22;46681;47.696;9.140;2022-08-18T05:50:13;20.80;55.90
60848;DHT22;46681;47.696;9.140;2022-08-18T05:53:08;20.90;56.00
60848;DHT22;46681;47.696;9.140;2022-08-18T05:55:41;20.90;56.00
60848;DHT22;46681;47.696;9.140;2022-08-18T05:58:16;20.80;57.90
60848;DHT22;46681;47.696;9.140;2022-08-18T06:00:53;20.80;59.50
60848;DHT22;46681;47.696;9.140;2022-08-18T06:03:34;20.60;62.30
60848;DHT22;46681;47.696;9.140;2022-08-18T06:06:22;20.40;63.70
60848;DHT22;46681;47.696;9.140;2022-08-18T06:09:02;20.40;63.70
60848;DHT22;46681;47.696;9.140;2022-08-18T06:11:30;20.30;64.00
60848;DHT22;46681;47.696;9.140;2022-08-18T06:13:58;20.30;64.60
60848;DHT22;46681;47.696;9.140;2022-08-18T06:19:27;20.30;64.70
60848;DHT22;46681;47.696;9.140;2022-08-18T06:22:16;20.40;64.00
60848;DHT22;46681;47.696;9.140;2022-08-18T06:24:58;20.40;63.70
60848;DHT22;46681;47.696;9.140;2022-08-18T06:27:37;20.40;63.40
60848;DHT22;46681;47.696;9.140;2022-08-18T06:30:22;20.50;63.60
60848;DHT22;46681;47.696;9.140;2022-08-18T06:35:42;20.60;63.40
60848;DHT22;46681;47.696;9.140;2022-08-18T06:40:51;20.70;62.90
60848;DHT22;46681;47.696;9.140;2022-08-18T06:43:27;20.70;62.90
60848;DHT22;46681;47.696;9.140;2022-08-18T06:45:57;20.80;62.80
60848;DHT22;46681;47.696;9.140;2022-08-18T06:48:36;20.90;63.50
60848;DHT22;46681;47.696;9.140;2022-08-18T06:51:17;21.00;63.00
60848;DHT22;46681;47.696;9.140;2022-08-18T06:54:01;21.10;62.60
60848;DHT22;46681;47.696;9.140;2022-08-18T06:56:48;21.10;62.40
60848;DHT22;46681;47.696;9.140;2022-08-18T06:59:27;21.20;62.00
60848;DHT22;46681;47.696;9.140;2022-08-18T07:04:43;21.40;61.20
60848;DHT22;46681;47.696;9.140;2022-08-18T07:07:35;21.50;60.60
60848;DHT22;46681;47.696;9.140;2022-08-18T07:12:45;21.70;60.00
60848;DHT22;46681;47.696;9.140;2022-08-18T07:15:24;21.80;59.60
60848;DHT22;46681;47.696;9.140;2022-08-18T07:17:52;21.90;59.70
60848;DHT22;46681;47.696;9.140;2022-08-18T07:20:54;22.00;59.60
60848;DHT22;46681;47.696;9.140;2022-08-18T07:26:28;22.20;59.20
60848;DHT22;46681;47.696;9.140;2022-08-18T07:29:13;22.30;58.90
60848;DHT22;46681;47.696;9.140;2022-08-18T07:31:53;22.50;58.40
60848;DHT22;46681;47.696;9.140;2022-08-18T07:34:44;22.60;58.20
60848;DHT22;46681;47.696;9.140;2022-08-18T07:37:34;22.70;57.90
60848;DHT22;46681;47.696;9.140;2022-08-18T07:43:04;23.00;57.20
60848;DHT22;46681;47.696;9.140;2022-08-18T07:45:50;23.00;56.90
60848;DHT22;46681;47.696;9.140;2022-08-18T07:48:31;23.10;56.70
60848;DHT22;46681;47.696;9.140;2022-08-18T07:53:53;23.30;56.70
60848;DHT22;46681;47.696;9.140;2022-08-18T07:59:00;23.30;56.70
60848;DHT22;46681;47.696;9.140;2022-08-18T08:01:51;23.30;56.70
60848;DHT22;46681;47.696;9.140;2022-08-18T08:07:40;23.30;56.40
60848;DHT22;46681;47.696;9.140;2022-08-18T08:13:14;23.40;56.30
60848;DHT22;46681;47.696;9.140;2022-08-18T08:19:01;23.50;55.90
60848;DHT22;46681;47.696;9.140;2022-08-18T08:21:43;23.60;55.70
60848;DHT22;46681;47.696;9.140;2022-08-18T08:30:27;23.90;55.00
60848;DHT22;46681;47.696;9.140;2022-08-18T08:47:04;24.90;53.40
60848;DHT22;46681;47.696;9.140;2022-08-18T08:49:51;25.00;53.10
60848;DHT22;46681;47.696;9.140;2022-08-18T08:56:07;25.30;52.50
60848;DHT22;46681;47.696;9.140;2022-08-18T08:59:09;25.40;52.30
60848;DHT22;46681;47.696;9.140;2022-08-18T09:09:58;26.00;51.30
60848;DHT22;46681;47.696;9.140;2022-08-18T09:18:45;26.10;50.70
60848;DHT22;46681;47.696;9.140;2022-08-18T09:27:10;26.10;50.50
60848;DHT22;46681;47.696;9.140;2022-08-18T09:37:52;26.50;49.70
60848;DHT22;46681;47.696;9.140;2022-08-18T09:40:24;26.60;49.70
60848;DHT22;46681;47.696;9.140;2022-08-18T09:43:26;26.70;49.50
60848;DHT22;46681;47.696;9.140;2022-08-18T09:46:09;26.80;49.30
60848;DHT22;46681;47.696;9.140;2022-08-18T09:48:41;26.80;49.30
60848;DHT22;46681;47.696;9.140;2022-08-18T09:51:35;26.90;49.10
60848;DHT22;46681;47.696;9.140;2022-08-18T09:54:18;27.10;49.10
60848;DHT22;46681;47.696;9.140;2022-08-18T10:04:46;27.20;48.70
60848;DHT22;46681;47.696;9.140;2022-08-18T10:07:39;27.20;48.80
60848;DHT22;46681;47.696;9.140;2022-08-18T10:14:06;27.30;48.40
60848;DHT22;46681;47.696;9.140;2022-08-18T10:16:48;27.40;48.40
60848;DHT22;46681;47.696;9.140;2022-08-18T10:22:47;27.50;48.10
60848;DHT22;46681;47.696;9.140;2022-08-18T10:31:26;27.80;47.80
60848;DHT22;46681;47.696;9.140;2022-08-18T10:34:08;27.80;47.70
60848;DHT22;46681;47.696;9.140;2022-08-18T10:42:34;27.60;48.10
60848;DHT22;46681;47.696;9.140;2022-08-18T10:45:29;27.50;48.20
60848;DHT22;46681;47.696;9.140;2022-08-18T11:05:03;27.20;48.60
60848;DHT22;46681;47.696;9.140;2022-08-18T11:07:36;27.20;48.80
60848;DHT22;46681;47.696;9.140;2022-08-18T11:10:45;27.10;48.80
60848;DHT22;46681;47.696;9.140;2022-08-18T11:16:12;27.00;48.50
60848;DHT22;46681;47.696;9.140;2022-08-18T11:21:55;27.10;49.00
60848;DHT22;46681;47.696;9.140;2022-08-18T11:24:31;27.20;48.90
60848;DHT22;46681;47.696;9.140;2022-08-18T11:27:06;27.20;48.90
60848;DHT22;46681;47.696;9.140;2022-08-18T11:30:11;27.30;48.80
60848;DHT22;46681;47.696;9.140;2022-08-18T11:32:52;27.30;48.60
60848;DHT22;46681;47.696;9.140;2022-08-18T11:35:44;27.50;48.40
60848;DHT22;46681;47.696;9.140;2022-08-18T11:38:14;27.60;48.40
60848;DHT22;46681;47.696;9.140;2022-08-18T11:41:09;27.70;48.20
60848;DHT22;46681;47.696;9.140;2022-08-18T11:43:46;27.90;48.00
60848;DHT22;46681;47.696;9.140;2022-08-18T11:46:48;28.00;47.70
60848;DHT22;46681;47.696;9.140;2022-08-18T11:49:49;28.00;47.40
60848;DHT22;46681;47.696;9.140;2022-08-18T11:52:28;28.10;47.30
60848;DHT22;46681;47.696;9.140;2022-08-18T11:55:28;28.10;47.30
60848;DHT22;46681;47.696;9.140;2022-08-18T11:58:01;28.10;47.30
60848;DHT22;46681;47.696;9.140;2022-08-18T12:03:40;28.10;47.00
60848;DHT22;46681;47.696;9.140;2022-08-18T12:06:55;28.20;47.10
60848;DHT22;46681;47.696;9.140;2022-08-18T12:09:35;28.30;46.90
60848;DHT22;46681;47.696;9.140;2022-08-18T12:17:52;28.50;46.50
60848;DHT22;46681;47.696;9.140;2022-08-18T12:20:28;28.60;46.50
60848;DHT22;46681;47.696;9.140;2022-08-18T12:23:04;28.60;46.40
60848;DHT22;46681;47.696;9.140;2022-08-18T12:25:35;28.60;46.30
60848;DHT22;46681;47.696;9.140;2022-08-18T12:28:04;28.60;46.30
60848;DHT22;46681;47.696;9.140;2022-08-18T12:30:49;28.60;46.30
60848;DHT22;46681;47.696;9.140;2022-08-18T12:33:40;28.60;46.20
60848;DHT22;46681;47.696;9.140;2022-08-18T12:36:18;28.60;46.30
60848;DHT22;46681;47.696;9.140;2022-08-18T12:38:51;28.50;46.30
60848;DHT22;46681;47.696;9.140;2022-08-18T12:41:26;28.50;46.40
60848;DHT22;46681;47.696;9.140;2022-08-18T12:44:05;28.40;46.40
60848;DHT22;46681;47.696;9.140;2022-08-18T12:46:36;28.40;46.40
60848;DHT22;46681;47.696;9.140;2022-08-18T12:49:25;28.40;46.50
60848;DHT22;46681;47.696;9.140;2022-08-18T12:52:23;28.40;46.50
60848;DHT22;46681;47.696;9.140;2022-08-18T12:55:35;28.50;46.60
60848;DHT22;46681;47.696;9.140;2022-08-18T12:58:24;28.60;46.60
60848;DHT22;46681;47.696;9.140;2022-08-18T13:00:55;28.70;46.50
60848;DHT22;46681;47.696;9.140;2022-08-18T13:03:40;28.80;46.10
60848;DHT22;46681;47.696;9.140;2022-08-18T13:09:22;28.90;45.80
60848;DHT22;46681;47.696;9.140;2022-08-18T13:12:03;28.90;45.70
60848;DHT22;46681;47.696;9.140;2022-08-18T13:14:55;28.90;45.70
60848;DHT22;46681;47.696;9.140;2022-08-18T13:17:39;28.90;45.50
60848;DHT22;46681;47.696;9.140;2022-08-18T13:20:11;28.90;45.70
60848;DHT22;46681;47.696;9.140;2022-08-18T13:22:52;28.80;45.70
60848;DHT22;46681;47.696;9.140;2022-08-18T13:25:55;28.80;45.70
60848;DHT22;46681;47.696;9.140;2022-08-18T13:28:52;28.70;45.80
60848;DHT22;46681;47.696;9.140;2022-08-18T13:34:23;28.50;46.00
60848;DHT22;46681;47.696;9.140;2022-08-18T13:37:12;28.50;46.00
60848;DHT22;46681;47.696;9.140;2022-08-18T13:39:40;28.40;46.20
60848;DHT22;46681;47.696;9.140;2022-08-18T13:42:06;28.40;46.20
60848;DHT22;46681;47.696;9.140;2022-08-18T13:44:36;28.30;46.10
60848;DHT22;46681;47.696;9.140;2022-08-18T13:47:25;28.30;46.40
60848;DHT22;46681;47.696;9.140;2022-08-18T13:50:03;28.20;46.20
60848;DHT22;46681;47.696;9.140;2022-08-18T13:52:59;28.10;46.20
60848;DHT22;46681;47.696;9.140;2022-08-18T13:55:30;28.10;46.40
60848;DHT22;46681;47.696;9.140;2022-08-18T13:58:09;28.00;46.50
60848;DHT22;46681;47.696;9.140;2022-08-18T14:01:03;28.00;46.50
60848;DHT22;46681;47.696;9.140;2022-08-18T14:03:52;27.90;46.50
60848;DHT22;46681;47.696;9.140;2022-08-18T14:06:34;27.80;46.80
60848;DHT22;46681;47.696;9.140;2022-08-18T14:08:59;27.80;46.90
60848;DHT22;46681;47.696;9.140;2022-08-18T14:12:17;27.70;47.00
60848;DHT22;46681;47.696;9.140;2022-08-18T14:15:07;27.70;47.00
60848;DHT22;46681;47.696;9.140;2022-08-18T14:20:20;27.50;47.20
60848;DHT22;46681;47.696;9.140;2022-08-18T14:22:46;27.50;47.30
60848;DHT22;46681;47.696;9.140;2022-08-18T14:28:11;27.40;47.30
60848;DHT22;46681;47.696;9.140;2022-08-18T14:30:42;27.30;47.50
60848;DHT22;46681;47.696;9.140;2022-08-18T14:33:32;27.30;47.60
60848;DHT22;46681;47.696;9.140;2022-08-18T14:36:21;27.20;47.70
60848;DHT22;46681;47.696;9.140;2022-08-18T14:38:53;27.10;47.80
60848;DHT22;46681;47.696;9.140;2022-08-18T14:41:42;27.10;48.30
60848;DHT22;46681;47.696;9.140;2022-08-18T14:44:11;27.00;48.00
60848;DHT22;46681;47.696;9.140;2022-08-18T14:46:36;26.90;48.10
60848;DHT22;46681;47.696;9.140;2022-08-18T14:49:09;26.90;48.10
60848;DHT22;46681;47.696;9.140;2022-08-18T14:51:41;26.90;48.10
60848;DHT22;46681;47.696;9.140;2022-08-18T14:54:30;26.80;48.20
60848;DHT22;46681;47.696;9.140;2022-08-18T14:57:00;26.80;48.30
60848;DHT22;46681;47.696;9.140;2022-08-18T14:59:33;26.70;48.30
60848;DHT22;46681;47.696;9.140;2022-08-18T15:02:13;26.60;48.30
60848;DHT22;46681;47.696;9.140;2022-08-18T15:05:00;26.60;48.50
60848;DHT22;46681;47.696;9.140;2022-08-18T15:07:29;26.50;48.60
60848;DHT22;46681;47.696;9.140;2022-08-18T15:13:08;26.40;48.80
60848;DHT22;46681;47.696;9.140;2022-08-18T15:15:48;26.30;48.90
60848;DHT22;46681;47.696;9.140;2022-08-18T15:18:18;26.30;49.00
60848;DHT22;46681;47.696;9.140;2022-08-18T15:20:55;26.20;48.90
60848;DHT22;46681;47.696;9.140;2022-08-18T15:23:37;26.20;48.90
60848;DHT22;46681;47.696;9.140;2022-08-18T15:26:06;26.10;49.00
60848;DHT22;46681;47.696;9.140;2022-08-18T15:28:33;26.10;49.10
60848;DHT22;46681;47.696;9.140;2022-08-18T15:31:00;26.00;49.20
60848;DHT22;46681;47.696;9.140;2022-08-18T15:33:31;26.00;49.40
60848;DHT22;46681;47.696;9.140;2022-08-18T15:36:05;25.90;49.40
60848;DHT22;46681;47.696;9.140;2022-08-18T15:38:38;25.90;49.50
60848;DHT22;46681;47.696;9.140;2022-08-18T15:44:08;25.80;49.60
60848;DHT22;46681;47.696;9.140;2022-08-18T15:46:54;25.70;49.60
60848;DHT22;46681;47.696;9.140;2022-08-18T15:49:28;25.60;49.60
60848;DHT22;46681;47.696;9.140;2022-08-18T15:51:53;25.60;49.80
60848;DHT22;46681;47.696;9.140;2022-08-18T15:54:48;25.50;49.80
60848;DHT22;46681;47.696;9.140;2022-08-18T15:57:23;25.50;49.90
60848;DHT22;46681;47.696;9.140;2022-08-18T16:00:02;25.40;49.90
60848;DHT22;46681;47.696;9.140;2022-08-18T16:02:39;25.40;50.10
60848;DHT22;46681;47.696;9.140;2022-08-18T16:05:19;25.40;50.20
60848;DHT22;46681;47.696;9.140;2022-08-18T16:07:46;25.30;50.20
60848;DHT22;46681;47.696;9.140;2022-08-18T16:10:23;25.30;50.20
60848;DHT22;46681;47.696;9.140;2022-08-18T16:12:54;25.20;50.30
60848;DHT22;46681;47.696;9.140;2022-08-18T16:15:29;25.20;50.80
60848;DHT22;46681;47.696;9.140;2022-08-18T16:18:00;25.20;50.70
60848;DHT22;46681;47.696;9.140;2022-08-18T16:20:26;25.20;50.90
60848;DHT22;46681;47.696;9.140;2022-08-18T16:22:52;25.10;51.40
60848;DHT22;46681;47.696;9.140;2022-08-18T16:25:27;25.10;51.60
60848;DHT22;46681;47.696;9.140;2022-08-18T16:27:59;25.10;51.50
60848;DHT22;46681;47.696;9.140;2022-08-18T16:30:39;25.00;51.50
60848;DHT22;46681;47.696;9.140;2022-08-18T16:33:07;25.10;52.10
60848;DHT22;46681;47.696;9.140;2022-08-18T16:35:35;25.00;52.80
60848;DHT22;46681;47.696;9.140;2022-08-18T16:38:23;25.00;53.00
60848;DHT22;46681;47.696;9.140;2022-08-18T16:41:19;25.00;54.00
60848;DHT22;46681;47.696;9.140;2022-08-18T16:43:48;25.00;53.40
60848;DHT22;46681;47.696;9.140;2022-08-18T16:46:19;25.00;53.60
60848;DHT22;46681;47.696;9.140;2022-08-18T16:48:56;24.90;53.70
60848;DHT22;46681;47.696;9.140;2022-08-18T16:51:33;24.90;54.20
60848;DHT22;46681;47.696;9.140;2022-08-18T16:53:59;24.80;54.30
60848;DHT22;46681;47.696;9.140;2022-08-18T16:56:48;24.70;54.30
60848;DHT22;46681;47.696;9.140;2022-08-18T16:59:16;24.70;54.90
60848;DHT22;46681;47.696;9.140;2022-08-18T17:01:51;24.60;54.50
60848;DHT22;46681;47.696;9.140;2022-08-18T17:04:47;24.60;54.60
60848;DHT22;46681;47.696;9.140;2022-08-18T17:07:19;24.50;55.00
60848;DHT22;46681;47.696;9.140;2022-08-18T17:09:55;24.50;55.00
60848;DHT22;46681;47.696;9.140;2022-08-18T17:12:32;24.40;54.70
60848;DHT22;46681;47.696;9.140;2022-08-18T17:14:58;24.40;55.10
60848;DHT22;46681;47.696;9.140;2022-08-18T17:17:25;24.30;55.30
60848;DHT22;46681;47.696;9.140;2022-08-18T17:19:51;24.30;55.40
60848;DHT22;46681;47.696;9.140;2022-08-18T17:22:28;24.20;55.60
60848;DHT22;46681;47.696;9.140;2022-08-18T17:24:59;24.20;55.80
60848;DHT22;46681;47.696;9.140;2022-08-18T17:27:34;24.20;55.50
60848;DHT22;46681;47.696;9.140;2022-08-18T17:30:22;24.10;55.90
60848;DHT22;46681;47.696;9.140;2022-08-18T17:33:15;24.00;56.30
60848;DHT22;46681;47.696;9.140;2022-08-18T17:35:47;24.00;56.00
60848;DHT22;46681;47.696;9.140;2022-08-18T17:41:01;23.90;56.20
60848;DHT22;46681;47.696;9.140;2022-08-18T17:43:35;23.90;56.30
60848;DHT22;46681;47.696;9.140;2022-08-18T17:46:37;23.80;56.40
60848;DHT22;46681;47.696;9.140;2022-08-18T17:49:20;23.80;56.40
60848;DHT22;46681;47.696;9.140;2022-08-18T17:51:58;23.70;56.50
60848;DHT22;46681;47.696;9.140;2022-08-18T17:54:46;23.70;56.50
60848;DHT22;46681;47.696;9.140;2022-08-18T17:57:27;23.70;56.60
60848;DHT22;46681;47.696;9.140;2022-08-18T18:00:08;23.60;57.10
60848;DHT22;46681;47.696;9.140;2022-08-18T18:02:43;23.60;58.20
60848;DHT22;46681;47.696;9.140;2022-08-18T18:05:22;23.50;60.00
60848;DHT22;46681;47.696;9.140;2022-08-18T18:10:31;23.30;63.30
60848;DHT22;46681;47.696;9.140;2022-08-18T18:13:24;23.20;61.80
60848;DHT22;46681;47.696;9.140;2022-08-18T18:16:24;23.10;61.50
60848;DHT22;46681;47.696;9.140;2022-08-18T18:19:10;23.00;62.00
60848;DHT22;46681;47.696;9.140;2022-08-18T18:22:04;23.00;62.30
60848;DHT22;46681;47.696;9.140;2022-08-18T18:24:51;23.00;62.20
60848;DHT22;46681;47.696;9.140;2022-08-18T18:27:50;23.00;63.20
60848;DHT22;46681;47.696;9.140;2022-08-18T18:30:23;22.90;62.90
60848;DHT22;46681;47.696;9.140;2022-08-18T18:33:26;22.90;62.80
60848;DHT22;46681;47.696;9.140;2022-08-18T18:35:56;22.90;63.20
60848;DHT22;46681;47.696;9.140;2022-08-18T18:38:39;22.90;63.40
60848;DHT22;46681;47.696;9.140;2022-08-18T18:43:41;22.80;63.20
60848;DHT22;46681;47.696;9.140;2022-08-18T18:49:23;22.80;63.60
60848;DHT22;46681;47.696;9.140;2022-08-18T18:51:58;22.70;64.00
60848;DHT22;46681;47.696;9.140;2022-08-18T18:54:43;22.70;64.10
60848;DHT22;46681;47.696;9.140;2022-08-18T19:00:16;22.70;64.60
60848;DHT22;46681;47.696;9.140;2022-08-18T19:03:16;22.70;64.70
60848;DHT22;46681;47.696;9.140;2022-08-18T19:13:40;22.50;64.40
60848;DHT22;46681;47.696;9.140;2022-08-18T19:16:27;22.50;65.10
60848;DHT22;46681;47.696;9.140;2022-08-18T19:19:00;22.50;64.70
60848;DHT22;46681;47.696;9.140;2022-08-18T19:21:31;22.50;65.00
60848;DHT22;46681;47.696;9.140;2022-08-18T19:24:19;22.40;65.10
60848;DHT22;46681;47.696;9.140;2022-08-18T19:26:59;22.40;65.30
60848;DHT22;46681;47.696;9.140;2022-08-18T19:29:30;22.40;65.30
60848;DHT22;46681;47.696;9.140;2022-08-18T19:32:18;22.40;65.70
60848;DHT22;46681;47.696;9.140;2022-08-18T19:34:48;22.30;65.90